Garden City, Washington
Current Conditions -  °F | °C
As of 2:21 AM on Wednesday 26 Nov 2014 (Local Time) from KSHN Reporting Station
Light Rain Light Rain  
Wind Chill: 55°   Ceiling: 1000
Heat Index: 55°   Visibility: 2.5mi
Dew Point: 54°   Wind: 9mph
Humidity: 96%   Direction: 190°S
Pressure: 30.16"   Gusts: NA
Location:  47.0427°N, 123.269°W
Report Text: KSHN 261021Z AUTO 19008KT 2 1/2SM -RA BR BKN010 OVC015 13/12 A3016 RMK AO2 P0002 T01280122
Loading
Personal Weather Stations






























Interactive Weather Map New forecast layout! Learn more

10-Day Weather Forecast

Advertisements
Track Severe Weather on mobile